createdAt,value
2022-08-05T00:01:36.295Z,2.60
2022-08-05T00:04:19.621Z,2.90
2022-08-05T00:06:51.713Z,2.90
2022-08-05T00:09:24.198Z,2.80
2022-08-05T00:11:56.093Z,3.00
2022-08-05T00:14:31.393Z,2.80
2022-08-05T00:17:04.287Z,2.60
2022-08-05T00:20:02.489Z,2.60
2022-08-05T00:22:32.824Z,2.60
2022-08-05T00:25:08.436Z,2.90
2022-08-05T00:27:42.906Z,2.70
2022-08-05T00:30:14.147Z,3.00
2022-08-05T00:32:42.514Z,2.80
2022-08-05T00:35:10.860Z,2.80
2022-08-05T00:37:52.707Z,2.90
2022-08-05T00:40:29.006Z,2.70
2022-08-05T00:43:00.797Z,2.60
2022-08-05T00:45:42.898Z,2.70
2022-08-05T00:48:15.732Z,2.60
2022-08-05T00:50:46.695Z,2.60
2022-08-05T00:54:01.481Z,2.90
2022-08-05T00:56:07.989Z,2.70
2022-08-05T00:58:37.055Z,2.90
2022-08-05T01:01:08.565Z,2.70
2022-08-05T01:03:39.027Z,2.50
2022-08-05T01:06:14.319Z,2.90
2022-08-05T01:08:44.979Z,2.50
2022-08-05T01:11:33.619Z,2.80
2022-08-05T01:14:31.801Z,2.30
2022-08-05T01:17:14.043Z,2.70
2022-08-05T01:20:27.078Z,2.80
2022-08-05T01:23:34.828Z,2.50
2022-08-05T01:26:14.199Z,2.80
2022-08-05T01:28:49.266Z,2.70
2022-08-05T01:31:28.139Z,2.50
2022-08-05T01:34:11.056Z,2.30
2022-08-05T01:36:47.785Z,2.80
2022-08-05T01:39:45.840Z,2.80
2022-08-05T01:42:09.620Z,2.90
2022-08-05T01:44:39.660Z,2.60
2022-08-05T01:47:10.819Z,2.90
2022-08-05T01:50:01.514Z,2.70
2022-08-05T01:52:32.869Z,2.80
2022-08-05T01:55:06.961Z,2.60
2022-08-05T01:58:09.944Z,2.70
2022-08-05T02:00:31.775Z,2.80
2022-08-05T02:03:24.447Z,2.90
2022-08-05T02:06:01.001Z,3.00
2022-08-05T02:08:33.931Z,2.70
2022-08-05T02:11:11.763Z,2.90
2022-08-05T02:13:56.507Z,2.90
2022-08-05T02:16:35.067Z,3.10
2022-08-05T02:19:08.795Z,3.00
2022-08-05T02:21:49.297Z,3.10
2022-08-05T02:24:23.014Z,3.10
2022-08-05T02:26:59.656Z,2.80
2022-08-05T02:29:58.402Z,3.00
2022-08-05T02:32:24.229Z,2.70
2022-08-05T02:35:09.582Z,4.20
2022-08-05T02:37:47.836Z,3.30
2022-08-05T02:40:24.684Z,3.20
2022-08-05T02:42:55.372Z,2.90
2022-08-05T02:45:25.599Z,2.70
2022-08-05T02:47:58.489Z,2.50
2022-08-05T02:50:38.389Z,3.10
2022-08-05T02:53:18.629Z,3.30
2022-08-05T02:55:54.190Z,2.80
2022-08-05T02:58:30.308Z,2.70
2022-08-05T03:01:02.721Z,2.90
2022-08-05T03:03:33.777Z,2.70
2022-08-05T03:06:55.446Z,2.90
2022-08-05T03:09:17.655Z,2.90
2022-08-05T03:11:56.477Z,2.70
2022-08-05T03:14:26.230Z,3.20
2022-08-05T03:16:54.554Z,3.30
2022-08-05T03:19:33.776Z,3.20
2022-08-05T03:22:04.830Z,2.80
2022-08-05T03:24:33.732Z,3.40
2022-08-05T03:27:03.854Z,3.30
2022-08-05T03:29:44.877Z,2.70
2022-08-05T03:32:30.846Z,3.20
2022-08-05T03:35:00.770Z,3.10
2022-08-05T03:37:31.401Z,3.10
2022-08-05T03:40:11.737Z,2.90
2022-08-05T03:42:41.812Z,3.30
2022-08-05T03:45:23.101Z,3.20
2022-08-05T03:47:56.709Z,3.00
2022-08-05T03:50:33.770Z,3.00
2022-08-05T03:55:51.763Z,3.10
2022-08-05T03:56:18.019Z,3.20
2022-08-05T03:59:03.987Z,3.10
2022-08-05T04:01:40.418Z,3.10
2022-08-05T04:04:11.034Z,3.40
2022-08-05T04:06:47.587Z,3.20
2022-08-05T04:09:26.086Z,3.20
2022-08-05T04:11:57.101Z,3.30
2022-08-05T04:14:29.823Z,3.40
2022-08-05T04:17:00.900Z,3.20
2022-08-05T04:19:31.450Z,3.00
2022-08-05T04:22:08.180Z,3.40
2022-08-05T04:24:43.954Z,2.90
2022-08-05T04:27:19.902Z,2.70
2022-08-05T04:30:03.815Z,2.70
2022-08-05T04:32:33.481Z,2.70
2022-08-05T04:35:04.651Z,2.90
2022-08-05T04:38:01.075Z,2.70
2022-08-05T04:40:22.379Z,2.60
2022-08-05T04:42:51.351Z,3.40
2022-08-05T04:45:23.033Z,2.60
2022-08-05T04:48:18.387Z,2.50
2022-08-05T04:51:02.513Z,2.50
2022-08-05T04:53:39.397Z,2.50
2022-08-05T04:56:32.306Z,2.70
2022-08-05T04:58:57.409Z,2.80
2022-08-05T05:02:06.279Z,3.80
2022-08-05T05:04:13.736Z,2.40
2022-08-05T05:06:44.632Z,2.30
2022-08-05T05:09:18.328Z,2.80
2022-08-05T05:11:54.499Z,2.90
2022-08-05T05:14:31.478Z,3.20
2022-08-05T05:17:01.162Z,2.80
2022-08-05T05:19:38.874Z,2.80
2022-08-05T05:22:24.152Z,2.90
2022-08-05T05:24:57.470Z,3.00
2022-08-05T05:27:41.819Z,2.90
2022-08-05T05:30:29.077Z,3.60
2022-08-05T05:33:08.879Z,2.40
2022-08-05T05:35:47.526Z,2.80
2022-08-05T05:38:22.560Z,3.30
2022-08-05T05:40:57.016Z,2.50
2022-08-05T05:43:57.293Z,2.90
2022-08-05T05:46:17.483Z,2.90
2022-08-05T05:48:48.857Z,2.70
2022-08-05T05:51:25.696Z,3.60
2022-08-05T05:53:58.731Z,2.60
2022-08-05T05:56:32.656Z,3.10
2022-08-05T05:59:06.213Z,2.70
2022-08-05T06:01:39.331Z,2.80
2022-08-05T06:04:11.366Z,2.70
2022-08-05T06:06:47.570Z,2.60
2022-08-05T06:09:25.956Z,2.80
2022-08-05T06:12:05.058Z,3.60
2022-08-05T06:14:34.827Z,2.90
2022-08-05T06:17:21.932Z,2.40
2022-08-05T06:19:56.757Z,2.80
2022-08-05T06:22:34.097Z,2.80
2022-08-05T06:25:25.136Z,4.40
2022-08-05T06:28:10.932Z,3.20
2022-08-05T06:30:41.828Z,3.20
2022-08-05T06:33:10.809Z,3.00
2022-08-05T06:36:07.802Z,3.20
2022-08-05T06:38:36.296Z,3.00
2022-08-05T06:41:08.028Z,2.80
2022-08-05T06:43:57.926Z,3.40
2022-08-05T06:46:30.255Z,2.90
2022-08-05T06:49:01.880Z,2.50
2022-08-05T06:51:34.718Z,2.70
2022-08-05T06:54:04.546Z,2.20
2022-08-05T06:56:34.905Z,2.60
2022-08-05T06:59:08.398Z,2.60
2022-08-05T07:01:37.086Z,2.80
2022-08-05T07:04:09.651Z,2.70
2022-08-05T07:06:38.445Z,2.80
2022-08-05T07:09:06.856Z,3.50
2022-08-05T07:11:36.869Z,2.90
2022-08-05T07:14:29.573Z,3.00
2022-08-05T07:17:58.779Z,3.50
2022-08-05T07:22:42.668Z,3.60
2022-08-05T07:25:54.392Z,3.10
2022-08-05T07:28:04.174Z,4.10
2022-08-05T07:30:39.774Z,4.10
2022-08-05T07:33:16.036Z,4.00
2022-08-05T07:36:02.114Z,4.20
2022-08-05T07:38:43.086Z,3.30
2022-08-05T07:42:09.287Z,4.20
2022-08-05T07:44:18.477Z,3.70
2022-08-05T07:46:49.488Z,3.80
2022-08-05T07:49:20.001Z,3.80
2022-08-05T07:51:54.017Z,3.90
2022-08-05T07:54:33.295Z,4.30
2022-08-05T07:57:16.877Z,4.00
2022-08-05T07:59:55.112Z,4.00
2022-08-05T08:02:30.758Z,4.60
2022-08-05T08:05:01.314Z,3.40
2022-08-05T08:07:39.601Z,3.40
2022-08-05T08:10:20.538Z,3.90
2022-08-05T08:12:50.532Z,3.60
2022-08-05T08:16:33.865Z,3.30
2022-08-05T08:18:13.761Z,4.60
2022-08-05T08:21:02.729Z,3.30
2022-08-05T08:24:01.931Z,3.30
2022-08-05T08:26:26.806Z,3.50
2022-08-05T08:29:21.900Z,2.90
2022-08-05T08:31:51.034Z,3.20
2022-08-05T08:34:30.507Z,2.70
2022-08-05T08:37:04.617Z,3.10
2022-08-05T08:39:37.356Z,3.00
2022-08-05T08:42:34.063Z,2.80
2022-08-05T08:45:24.353Z,2.50
2022-08-05T08:48:07.496Z,2.30
2022-08-05T08:51:03.631Z,3.00
2022-08-05T08:53:45.055Z,2.20
2022-08-05T08:56:13.757Z,3.00
2022-08-05T08:58:44.496Z,2.50
2022-08-05T09:01:19.643Z,1.80
2022-08-05T09:03:58.299Z,2.40
2022-08-05T09:06:30.639Z,2.20
2022-08-05T09:09:01.796Z,1.70
2022-08-05T09:11:50.853Z,1.80
2022-08-05T09:14:59.127Z,1.60
2022-08-05T09:17:40.658Z,1.70
2022-08-05T09:20:05.864Z,1.80
2022-08-05T09:23:18.521Z,1.70
2022-08-05T09:26:02.193Z,1.80
2022-08-05T09:28:34.826Z,1.60
2022-08-05T09:31:23.213Z,2.00
2022-08-05T09:34:01.586Z,2.10
2022-08-05T09:36:56.143Z,1.90
2022-08-05T09:39:45.679Z,1.40
2022-08-05T09:42:28.277Z,1.70
2022-08-05T09:45:17.844Z,1.10
2022-08-05T09:47:57.526Z,2.30
2022-08-05T09:50:44.247Z,1.40
2022-08-05T09:53:23.147Z,2.00
2022-08-05T09:56:11.401Z,1.50
2022-08-05T09:58:47.710Z,1.70
2022-08-05T10:01:32.012Z,2.70
2022-08-05T10:04:10.652Z,1.90
2022-08-05T10:06:54.864Z,1.90
2022-08-05T10:09:29.519Z,2.20
2022-08-05T10:12:18.581Z,1.60
2022-08-05T10:15:23.959Z,1.70
2022-08-05T10:18:13.891Z,1.80
2022-08-05T10:20:56.060Z,1.60
2022-08-05T10:23:55.609Z,1.70
2022-08-05T10:26:15.022Z,1.60
2022-08-05T10:28:46.317Z,1.50
2022-08-05T10:32:52.877Z,1.60
2022-08-05T10:34:37.043Z,1.60
2022-08-05T10:37:13.145Z,1.90
2022-08-05T10:40:03.196Z,1.70
2022-08-05T10:42:43.840Z,1.50
2022-08-05T10:45:23.954Z,1.80
2022-08-05T10:48:52.699Z,1.50
2022-08-05T10:51:29.365Z,1.60
2022-08-05T10:54:05.697Z,1.50
2022-08-05T11:00:03.451Z,1.50
2022-08-05T11:02:37.973Z,1.70
2022-08-05T11:05:10.775Z,1.70
2022-08-05T11:08:02.848Z,1.30
2022-08-05T11:10:50.277Z,1.60
2022-08-05T11:13:57.778Z,1.40
2022-08-05T11:16:34.031Z,1.70
2022-08-05T11:20:17.018Z,2.20
2022-08-05T11:22:43.834Z,1.60
2022-08-05T11:26:04.250Z,2.40
2022-08-05T11:28:26.846Z,1.50
2022-08-05T11:30:58.722Z,1.70
2022-08-05T11:33:48.413Z,1.70
2022-08-05T11:36:34.698Z,1.60
2022-08-05T11:39:09.497Z,1.40
2022-08-05T11:42:01.370Z,1.30
2022-08-05T11:44:41.163Z,1.90
2022-08-05T11:47:49.655Z,1.70
2022-08-05T11:50:14.151Z,1.40
2022-08-05T11:52:49.679Z,1.70
2022-08-05T11:55:20.414Z,1.40
2022-08-05T11:58:09.328Z,1.60
2022-08-05T12:00:41.617Z,1.60
2022-08-05T12:03:29.436Z,2.10
2022-08-05T12:06:02.911Z,1.50
2022-08-05T12:08:32.846Z,1.40
2022-08-05T12:11:06.281Z,2.00
2022-08-05T12:13:49.376Z,1.80
2022-08-05T12:16:27.053Z,1.50
2022-08-05T12:18:56.003Z,1.50
2022-08-05T12:21:29.826Z,1.70
2022-08-05T12:24:07.750Z,1.90
2022-08-05T12:26:50.878Z,1.60
2022-08-05T12:29:23.053Z,1.40
2022-08-05T12:32:01.823Z,1.80
2022-08-05T12:34:37.515Z,1.30
2022-08-05T12:37:17.353Z,3.40
2022-08-05T12:39:55.300Z,1.30
2022-08-05T12:42:32.414Z,1.30
2022-08-05T12:45:08.695Z,1.30
2022-08-05T12:48:01.066Z,1.50
2022-08-05T12:50:27.426Z,1.30
2022-08-05T12:53:00.461Z,1.30
2022-08-05T12:55:35.296Z,1.40
2022-08-05T12:58:49.408Z,1.30
2022-08-05T13:02:01.454Z,1.70
2022-08-05T13:03:48.723Z,1.40
2022-08-05T13:06:17.973Z,1.30
2022-08-05T13:08:52.464Z,1.20
2022-08-05T13:11:25.462Z,1.50
2022-08-05T13:14:15.986Z,1.80
2022-08-05T13:16:59.687Z,1.40
2022-08-05T13:19:40.415Z,1.50
2022-08-05T13:22:27.970Z,1.50
2022-08-05T13:25:00.344Z,1.90
2022-08-05T13:30:33.583Z,1.20
2022-08-05T13:33:01.173Z,1.50
2022-08-05T13:35:46.974Z,1.70
2022-08-05T13:38:30.362Z,1.70
2022-08-05T13:41:03.961Z,1.20
2022-08-05T13:43:43.990Z,1.50
2022-08-05T13:46:16.331Z,1.30
2022-08-05T13:49:00.944Z,1.40
2022-08-05T13:51:40.096Z,1.50
2022-08-05T13:54:12.290Z,1.30
2022-08-05T13:56:45.217Z,1.30
2022-08-05T13:59:25.041Z,1.20
2022-08-05T14:01:58.649Z,1.30
2022-08-05T14:04:51.864Z,1.10
2022-08-05T14:07:55.536Z,1.20
2022-08-05T14:10:18.955Z,1.50
2022-08-05T14:12:57.718Z,2.00
2022-08-05T14:16:04.742Z,1.60
2022-08-05T14:18:17.646Z,1.30
2022-08-05T14:20:54.931Z,1.30
2022-08-05T14:23:25.496Z,1.30
2022-08-05T14:26:38.439Z,1.50
2022-08-05T14:29:04.213Z,1.40
2022-08-05T14:32:02.188Z,1.60
2022-08-05T14:34:23.703Z,1.20
2022-08-05T14:36:52.300Z,1.30
2022-08-05T14:39:23.587Z,1.60
2022-08-05T14:42:19.613Z,1.30
2022-08-05T14:44:41.255Z,1.60
2022-08-05T14:47:11.992Z,1.50
2022-08-05T14:49:59.400Z,1.40
2022-08-05T14:52:51.997Z,1.30
2022-08-05T14:55:24.718Z,0.90
2022-08-05T14:57:54.445Z,1.00
2022-08-05T15:00:27.893Z,1.20
2022-08-05T15:02:57.227Z,1.20
2022-08-05T15:05:29.605Z,1.20
2022-08-05T15:08:06.432Z,1.20
2022-08-05T15:10:46.189Z,1.60
2022-08-05T15:13:15.340Z,1.60
2022-08-05T15:15:54.867Z,1.50
2022-08-05T15:18:25.293Z,1.50
2022-08-05T15:20:54.866Z,1.20
2022-08-05T15:23:23.294Z,1.80
2022-08-05T15:25:56.622Z,1.30
2022-08-05T15:28:27.987Z,2.60
2022-08-05T15:30:57.443Z,1.70
2022-08-05T15:34:04.706Z,1.50
2022-08-05T15:36:17.343Z,2.20
2022-08-05T15:40:59.156Z,1.90
2022-08-05T15:41:58.420Z,2.10
2022-08-05T15:44:30.223Z,1.70
2022-08-05T15:49:53.764Z,1.50
2022-08-05T15:52:51.839Z,1.60
2022-08-05T15:55:16.172Z,1.40
2022-08-05T15:57:48.881Z,1.40
2022-08-05T16:00:25.954Z,1.60
2022-08-05T16:03:01.413Z,1.70
2022-08-05T16:05:30.605Z,1.70
2022-08-05T16:07:59.041Z,1.50
2022-08-05T16:10:28.640Z,1.70
2022-08-05T16:12:57.810Z,1.50
2022-08-05T16:15:32.232Z,1.70
2022-08-05T16:18:01.269Z,1.30
2022-08-05T16:20:33.332Z,1.50
2022-08-05T16:23:02.098Z,1.60
2022-08-05T16:25:33.853Z,1.40
2022-08-05T16:28:09.722Z,1.30
2022-08-05T16:30:38.724Z,1.50
2022-08-05T16:33:07.315Z,1.70
2022-08-05T16:35:42.436Z,1.70
2022-08-05T16:38:23.877Z,1.70
2022-08-05T16:43:33.354Z,1.60
2022-08-05T16:46:23.486Z,1.70
2022-08-05T16:48:52.702Z,1.80
2022-08-05T16:51:21.110Z,1.70
2022-08-05T16:54:04.112Z,1.90
2022-08-05T16:56:37.205Z,1.50
2022-08-05T16:59:10.653Z,2.40
2022-08-05T17:01:52.694Z,2.00
2022-08-05T17:04:26.495Z,2.30
2022-08-05T17:07:03.182Z,2.50
2022-08-05T17:09:58.262Z,2.50
2022-08-05T17:12:50.570Z,2.10
2022-08-05T17:15:19.692Z,2.00
2022-08-05T17:17:55.222Z,1.70
2022-08-05T17:20:26.719Z,5.40
2022-08-05T17:22:55.523Z,1.60
2022-08-05T17:25:40.116Z,2.40
2022-08-05T17:28:15.559Z,2.30
2022-08-05T17:30:51.872Z,2.50
2022-08-05T17:33:21.352Z,4.60
2022-08-05T17:36:07.793Z,3.40
2022-08-05T17:38:37.739Z,2.50
2022-08-05T17:41:11.570Z,3.20
2022-08-05T17:43:57.326Z,8.40
2022-08-05T17:46:26.362Z,2.70
2022-08-05T17:48:57.960Z,2.30
2022-08-05T17:51:26.982Z,2.10
2022-08-05T17:53:55.405Z,2.40
2022-08-05T17:56:23.684Z,2.10
2022-08-05T17:58:57.178Z,2.20
2022-08-05T18:01:25.738Z,3.20
2022-08-05T18:04:03.531Z,3.10
2022-08-05T18:06:34.210Z,3.00
2022-08-05T18:09:03.509Z,3.00
2022-08-05T18:11:33.558Z,3.70
2022-08-05T18:14:04.485Z,3.80
2022-08-05T18:16:51.524Z,3.70
2022-08-05T18:19:23.068Z,4.90
2022-08-05T18:22:08.227Z,16.10
2022-08-05T18:24:39.904Z,9.20
2022-08-05T18:27:12.618Z,31.40
2022-08-05T18:29:53.716Z,13.90
2022-08-05T18:32:25.136Z,21.50
2022-08-05T18:34:58.065Z,41.00
2022-08-05T18:37:34.440Z,29.10
2022-08-05T18:41:49.926Z,47.00
2022-08-05T18:42:59.197Z,41.20
2022-08-05T18:45:41.404Z,9.90
2022-08-05T18:48:11.415Z,4.90
2022-08-05T18:51:01.666Z,3.40
2022-08-05T18:53:50.202Z,3.10
2022-08-05T18:58:50.927Z,3.00
2022-08-05T19:01:33.390Z,2.60
2022-08-05T19:04:24.029Z,2.70
2022-08-05T19:06:58.282Z,2.50
2022-08-05T19:09:26.717Z,2.90
2022-08-05T19:12:00.165Z,2.50
2022-08-05T19:14:59.382Z,3.00
2022-08-05T19:17:19.617Z,2.80
2022-08-05T19:19:51.445Z,3.00
2022-08-05T19:22:22.907Z,3.20
2022-08-05T19:25:02.557Z,3.20
2022-08-05T19:27:31.260Z,2.90
2022-08-05T19:30:03.034Z,2.80
2022-08-05T19:32:32.683Z,2.90
2022-08-05T19:35:06.381Z,2.80
2022-08-05T19:38:06.339Z,2.70
2022-08-05T19:40:24.321Z,3.50
2022-08-05T19:43:00.806Z,3.20
2022-08-05T19:45:36.740Z,3.70
2022-08-05T19:50:35.376Z,3.60
2022-08-05T19:53:09.380Z,2.50
2022-08-05T19:56:14.155Z,2.60
2022-08-05T19:58:29.238Z,2.30
2022-08-05T20:00:59.138Z,2.90
2022-08-05T20:03:37.957Z,2.60
2022-08-05T20:06:15.399Z,2.60
2022-08-05T20:08:47.606Z,3.10
2022-08-05T20:11:19.583Z,2.60
2022-08-05T20:13:58.367Z,2.60
2022-08-05T20:16:37.370Z,2.50
2022-08-05T20:19:06.245Z,3.50
2022-08-05T20:21:35.122Z,2.30
2022-08-05T20:24:07.455Z,2.60
2022-08-05T20:26:40.148Z,2.50
2022-08-05T20:29:26.909Z,2.50
2022-08-05T20:31:58.304Z,2.50
2022-08-05T20:36:56.298Z,2.70
2022-08-05T20:39:24.462Z,2.60
2022-08-05T20:42:05.329Z,2.20
2022-08-05T20:44:34.595Z,2.50
2022-08-05T20:49:39.597Z,2.30
2022-08-05T20:52:10.787Z,2.60
2022-08-05T20:57:44.021Z,2.30
2022-08-05T21:00:41.524Z,2.20
2022-08-05T21:03:07.801Z,2.40
2022-08-05T21:05:53.594Z,2.50
2022-08-05T21:08:41.354Z,2.50
2022-08-05T21:11:12.695Z,2.20
2022-08-05T21:13:47.910Z,2.20
2022-08-05T21:16:29.462Z,2.00
2022-08-05T21:19:01.102Z,2.30
2022-08-05T21:21:43.933Z,2.20
2022-08-05T21:24:20.040Z,2.30
2022-08-05T21:26:53.525Z,2.00
2022-08-05T21:29:32.078Z,2.20
2022-08-05T21:32:03.952Z,2.10
2022-08-05T21:34:33.111Z,2.40
2022-08-05T21:37:05.207Z,2.50
2022-08-05T21:39:34.739Z,2.50
2022-08-05T21:42:11.938Z,2.40
2022-08-05T21:44:57.861Z,2.50
2022-08-05T21:47:56.721Z,2.60
2022-08-05T21:50:16.694Z,2.60
2022-08-05T21:52:47.342Z,2.40
2022-08-05T21:55:17.252Z,2.80
2022-08-05T21:57:45.989Z,2.70
2022-08-05T22:00:15.227Z,2.30
2022-08-05T22:02:44.012Z,2.70
2022-08-05T22:05:13.986Z,2.80
2022-08-05T22:07:59.303Z,2.90
2022-08-05T22:10:31.003Z,2.90
2022-08-05T22:13:09.368Z,2.70
2022-08-05T22:16:02.728Z,2.60
2022-08-05T22:18:36.072Z,2.60
2022-08-05T22:21:18.856Z,2.70
2022-08-05T22:24:09.152Z,2.50
2022-08-05T22:27:00.400Z,2.60
2022-08-05T22:29:35.178Z,2.70
2022-08-05T22:32:04.181Z,2.60
2022-08-05T22:34:33.504Z,2.60
2022-08-05T22:37:03.956Z,2.70
2022-08-05T22:39:34.801Z,2.80
2022-08-05T22:42:12.705Z,3.90
2022-08-05T22:44:48.342Z,4.50
2022-08-05T22:47:29.772Z,3.10
2022-08-05T22:50:22.811Z,2.70
2022-08-05T22:52:52.843Z,2.70
2022-08-05T22:55:23.240Z,2.30
2022-08-05T22:57:53.039Z,2.40
2022-08-05T23:00:23.471Z,2.40
2022-08-05T23:02:53.749Z,3.00
2022-08-05T23:05:23.125Z,2.80
2022-08-05T23:07:51.717Z,2.50
2022-08-05T23:10:24.034Z,2.60
2022-08-05T23:12:55.212Z,2.30
2022-08-05T23:15:29.227Z,2.50
2022-08-05T23:18:01.956Z,2.80
2022-08-05T23:20:33.048Z,2.60
2022-08-05T23:23:07.984Z,2.30
2022-08-05T23:25:53.688Z,2.60
2022-08-05T23:28:29.104Z,2.80
2022-08-05T23:31:15.756Z,2.40
2022-08-05T23:34:04.334Z,2.40
2022-08-05T23:36:41.392Z,2.60
2022-08-05T23:39:17.409Z,2.50
2022-08-05T23:42:00.882Z,2.50
2022-08-05T23:44:31.306Z,2.40
2022-08-05T23:47:02.595Z,2.80
2022-08-05T23:49:47.192Z,2.40
2022-08-05T23:55:10.909Z,2.60
2022-08-05T23:57:41.200Z,2.70
